Time;durP1;ratioP1;P1;durP2;ratioP2;P2;SDS_P1;SDS_P2;PMS_P1;PMS_P2;Temp;Humidity;BMP_temperature;BMP_pressure;BME280_temperature;BME280_humidity;BME280_pressure;Samples;Min_cycle;Max_cycle;Signal;HPM_P1;HPM_P2
2022/07/03 00:01:26;;;;;;;2.53;1.25;;;;;;;14.20;100.00;100700.25;5042707;28;20023;-67
2022/07/03 00:03:52;;;;;;;5.43;1.60;;;;;;;14.22;100.00;100708.97;5053592;28;20436;-67
2022/07/03 00:06:17;;;;;;;3.63;1.52;;;;;;;14.14;100.00;100695.34;5087969;28;20490;-67
2022/07/03 00:08:43;;;;;;;3.03;1.20;;;;;;;14.17;100.00;100694.31;5077875;28;20024;-67
2022/07/03 00:11:08;;;;;;;2.65;1.23;;;;;;;14.21;100.00;100712.56;5062848;28;20478;-67
2022/07/03 00:13:34;;;;;;;2.03;0.95;;;;;;;13.82;100.00;100644.44;5073431;28;20536;-67
2022/07/03 00:15:59;;;;;;;2.78;1.08;;;;;;;14.15;100.00;100702.34;5074646;28;20032;-67
2022/07/03 00:18:25;;;;;;;3.67;1.40;;;;;;;14.14;100.00;100705.94;5073108;28;20059;-67
2022/07/03 00:20:58;;;;;;;5.07;1.33;;;;;;;14.13;100.00;100704.22;5062444;28;20024;-67
2022/07/03 00:23:23;;;;;;;3.25;1.58;;;;;;;14.12;100.00;100697.25;5068538;28;20024;-67
2022/07/03 00:25:49;;;;;;;2.08;1.20;;;;;;;14.09;100.00;100701.88;5094682;28;20036;-67
2022/07/03 00:28:16;;;;;;;2.95;1.40;;;;;;;13.95;100.00;100686.84;5081224;28;20027;-66
2022/07/03 00:30:42;;;;;;;2.20;1.05;;;;;;;14.03;100.00;100702.22;5064879;28;20115;-67
2022/07/03 00:33:08;;;;;;;3.10;1.40;;;;;;;13.51;100.00;100617.31;5077295;28;20028;-67
2022/07/03 00:35:35;;;;;;;2.92;1.15;;;;;;;13.95;100.00;100694.75;5094473;28;20067;-67
2022/07/03 00:38:01;;;;;;;2.60;1.30;;;;;;;13.89;100.00;100689.81;5078362;28;20025;-67
2022/07/03 00:40:27;;;;;;;4.00;1.40;;;;;;;13.91;100.00;100687.94;5071124;28;20028;-67
2022/07/03 00:42:53;;;;;;;3.08;1.25;;;;;;;13.91;100.00;100692.38;5057115;28;20528;-67
2022/07/03 00:45:20;;;;;;;2.58;1.42;;;;;;;13.91;100.00;100693.25;5053198;28;20059;-67
2022/07/03 00:47:46;;;;;;;3.47;1.48;;;;;;;13.83;100.00;100692.81;5070952;28;20378;-67
2022/07/03 00:50:11;;;;;;;3.13;1.38;;;;;;;13.76;100.00;100675.63;5074793;28;20028;-67
2022/07/03 00:52:38;;;;;;;2.05;1.20;;;;;;;13.80;100.00;100695.66;5085548;28;20025;-67
2022/07/03 00:55:07;;;;;;;6.63;1.40;;;;;;;13.79;100.00;100689.50;5059413;28;20060;-67
2022/07/03 00:57:33;;;;;;;3.58;1.70;;;;;;;13.78;100.00;100693.13;5073954;28;20035;-67
2022/07/03 01:00:00;;;;;;;3.22;1.27;;;;;;;13.77;100.00;100691.41;5073065;28;20024;-67
2022/07/03 01:03:21;;;;;;;3.20;1.23;;;;;;;13.75;100.00;100687.97;5082288;28;20032;-67
2022/07/03 01:05:50;;;;;;;2.60;1.00;;;;;;;13.72;100.00;100682.06;5035124;28;20043;-67
2022/07/03 01:08:15;;;;;;;3.33;1.42;;;;;;;13.76;100.00;100689.69;5092834;28;20039;-67
2022/07/03 01:11:05;;;;;;;4.03;1.70;;;;;;;13.74;100.00;100677.53;5077404;28;20028;-67
2022/07/03 01:13:58;;;;;;;3.25;1.63;;;;;;;13.78;100.00;100687.84;5084737;28;20046;-67
2022/07/03 01:16:45;;;;;;;2.90;1.52;;;;;;;13.77;100.00;100680.00;5078287;28;20039;-67
2022/07/03 01:19:36;;;;;;;3.28;1.50;;;;;;;13.74;100.00;100690.72;5081778;28;20493;-67
2022/07/03 01:22:26;;;;;;;3.78;1.23;;;;;;;13.73;100.00;100683.75;5065795;28;20032;-67
2022/07/03 01:25:14;;;;;;;2.85;1.33;;;;;;;13.69;100.00;100688.34;5092190;28;20032;-67
2022/07/03 01:28:01;;;;;;;3.13;1.67;;;;;;;13.66;100.00;100687.69;5078392;28;20372;-67
2022/07/03 01:30:29;;;;;;;2.45;1.17;;;;;;;13.64;100.00;100692.22;5072971;28;20444;-68
2022/07/03 01:32:58;;;;;;;3.50;1.50;;;;;;;13.60;100.00;100694.19;5073858;28;20043;-68
2022/07/03 01:36:01;;;;;;;3.47;1.38;;;;;;;13.57;100.00;100689.06;5091943;28;20052;-67
2022/07/03 01:38:31;;;;;;;3.95;2.05;;;;;;;13.50;100.00;100687.72;5078590;28;20081;-68
2022/07/03 01:40:58;;;;;;;4.50;2.00;;;;;;;13.35;100.00;100674.56;5080556;28;20085;-67
2022/07/03 01:43:35;;;;;;;4.78;1.73;;;;;;;13.49;100.00;100712.41;5091263;28;20051;-67
2022/07/03 01:46:03;;;;;;;4.68;2.22;;;;;;;13.52;100.00;100706.13;5074195;28;20024;-67
2022/07/03 01:48:30;;;;;;;5.07;2.30;;;;;;;13.60;100.00;100714.44;5073004;28;20032;-68
2022/07/03 01:50:57;;;;;;;4.85;1.95;;;;;;;13.54;100.00;100701.59;5069614;28;20458;-67
2022/07/03 01:53:25;;;;;;;5.15;2.08;;;;;;;13.59;100.00;100707.44;5072235;28;20455;-68
2022/07/03 01:55:55;;;;;;;3.95;2.35;;;;;;;13.53;100.00;100707.81;5081183;28;20470;-68
2022/07/03 01:58:21;;;;;;;4.95;1.98;;;;;;;13.67;100.00;100713.16;5073154;28;20483;-67
2022/07/03 02:01:08;;;;;;;3.45;1.90;;;;;;;13.76;100.00;100718.75;5072531;28;20061;-68
2022/07/03 02:03:35;;;;;;;3.17;1.85;;;;;;;13.80;100.00;100716.78;5086342;28;20017;-67
2022/07/03 02:06:10;;;;;;;4.03;2.03;;;;;;;13.74;100.00;100701.31;5078641;28;20935;-67
2022/07/03 02:08:37;;;;;;;3.30;1.83;;;;;;;13.90;100.00;100712.66;5035997;28;20023;-67
2022/07/03 02:11:18;;;;;;;6.63;2.88;;;;;;;14.04;100.00;100704.78;5085692;28;20074;-67
2022/07/03 02:13:59;;;;;;;6.30;2.42;;;;;;;14.25;100.00;100716.72;5071810;28;20031;-67
2022/07/03 02:16:26;;;;;;;4.10;2.17;;;;;;;14.35;100.00;100709.09;5084511;28;20029;-67
2022/07/03 02:19:03;;;;;;;3.63;1.90;;;;;;;14.33;100.00;100689.78;5054259;28;20032;-67
2022/07/03 02:21:29;;;;;;;6.60;2.30;;;;;;;14.44;100.00;100708.53;5070467;28;20475;-67
2022/07/03 02:24:20;;;;;;;4.25;2.03;;;;;;;14.44;100.00;100697.97;5074561;28;20102;-67
2022/07/03 02:26:51;;;;;;;12.32;2.70;;;;;;;14.49;100.00;100710.91;5069138;28;20028;-67
2022/07/03 02:29:17;;;;;;;7.25;3.30;;;;;;;14.45;100.00;100710.25;5052630;28;20021;-67
2022/07/03 02:31:52;;;;;;;5.20;2.90;;;;;;;14.31;100.00;100681.13;5066569;28;20032;-67
2022/07/03 02:34:23;;;;;;;4.85;2.83;;;;;;;14.28;100.00;100681.31;5064867;28;20098;-67
2022/07/03 02:36:49;;;;;;;6.47;2.83;;;;;;;14.31;100.00;100708.41;5072966;28;20039;-67
2022/07/03 02:39:23;;;;;;;5.30;3.20;;;;;;;14.31;100.00;100696.97;5042819;28;20025;-67
2022/07/03 02:42:03;;;;;;;5.40;2.83;;;;;;;14.24;100.00;100696.50;5050231;28;20098;-67
2022/07/03 02:44:35;;;;;;;7.63;3.10;;;;;;;14.15;100.00;100697.06;5078399;28;20027;-66
2022/07/03 02:47:05;;;;;;;5.30;2.65;;;;;;;14.14;100.00;100695.34;5036747;28;20033;-67
2022/07/03 02:49:42;;;;;;;6.55;3.53;;;;;;;14.14;100.00;100694.50;5085048;28;20539;-67
2022/07/03 02:52:17;;;;;;;8.13;3.78;;;;;;;14.14;100.00;100705.06;5041754;28;20079;-66
2022/07/03 02:54:47;;;;;;;4.15;2.58;;;;;;;13.97;100.00;100686.72;5064665;28;20074;-66
2022/07/03 02:57:19;;;;;;;6.68;2.85;;;;;;;14.02;100.00;100709.31;5079183;28;20044;-66
2022/07/03 02:59:55;;;;;;;6.80;3.28;;;;;;;14.03;100.00;100715.41;5086862;28;20039;-66
2022/07/03 03:02:52;;;;;;;4.82;3.13;;;;;;;13.95;100.00;100715.91;5063980;28;20055;-67
2022/07/03 03:05:20;;;;;;;3.30;2.42;;;;;;;13.97;100.00;100719.28;5085118;28;20074;-67
2022/07/03 03:08:12;;;;;;;9.32;3.75;;;;;;;13.90;100.00;100717.94;5081730;28;20028;-66
2022/07/03 03:10:38;;;;;;;7.28;3.42;;;;;;;13.87;100.00;100712.84;5087696;28;20073;-67
2022/07/03 03:13:12;;;;;;;7.47;3.00;;;;;;;13.88;100.00;100714.56;5087410;28;20021;-66
2022/07/03 03:15:39;;;;;;;6.72;3.28;;;;;;;13.87;100.00;100718.13;5040389;28;20503;-67
2022/07/03 03:18:11;;;;;;;4.13;2.90;;;;;;;13.76;100.00;100699.41;5088227;28;20032;-67
2022/07/03 03:20:38;;;;;;;8.85;3.42;;;;;;;13.88;100.00;100717.19;5077880;28;20029;-67
2022/07/03 03:23:54;;;;;;;14.95;3.22;;;;;;;13.82;100.00;100723.66;5065433;28;20463;-68
2022/07/03 03:26:20;;;;;;;;;;;;;;;13.81;100.00;100727.28;5051443;28;20499;-68
2022/07/03 03:28:46;;;;;;;6.75;2.92;;;;;;;13.79;100.00;100725.63;5042004;28;20326;-67
2022/07/03 03:31:12;;;;;;;4.85;3.17;;;;;;;13.70;100.00;100708.56;5069797;28;20040;-67
2022/07/03 03:33:42;;;;;;;4.72;3.03;;;;;;;13.69;100.00;100713.91;5047979;28;20025;-67
2022/07/03 03:36:10;;;;;;;4.45;2.88;;;;;;;13.73;100.00;100716.28;5071288;28;20103;-67
2022/07/03 03:38:36;;;;;;;8.52;3.13;;;;;;;13.68;100.00;100722.78;5070798;28;20567;-67
2022/07/03 03:41:03;;;;;;;7.43;3.05;;;;;;;13.56;100.00;100713.78;5069212;28;20115;-67
2022/07/03 03:43:29;;;;;;;5.75;3.22;;;;;;;13.54;100.00;100725.38;5055338;28;20036;-67
2022/07/03 03:45:55;;;;;;;4.68;2.67;;;;;;;13.60;100.00;100725.88;5067635;28;20032;-67
2022/07/03 03:48:20;;;;;;;5.85;3.22;;;;;;;13.62;100.00;100723.16;5071083;28;20032;-67
2022/07/03 03:50:45;;;;;;;8.25;3.78;;;;;;;13.65;100.00;100728.25;5095109;28;20083;-67
2022/07/03 03:53:12;;;;;;;6.30;4.10;;;;;;;13.65;100.00;100733.53;5048995;28;20033;-67
2022/07/03 03:55:51;;;;;;;6.15;3.63;;;;;;;13.59;100.00;100723.28;5086968;28;20082;-67
2022/07/03 03:58:16;;;;;;;10.05;4.13;;;;;;;13.63;100.00;100727.47;5089966;28;20029;-66
2022/07/03 04:00:42;;;;;;;6.57;3.88;;;;;;;13.63;100.00;100730.13;5075503;28;20033;-66
2022/07/03 04:03:07;;;;;;;5.80;3.80;;;;;;;13.64;100.00;100718.63;5058571;28;20086;-66
2022/07/03 04:05:32;;;;;;;5.15;3.75;;;;;;;13.72;100.00;100730.44;5064192;28;20098;-67
2022/07/03 04:07:58;;;;;;;4.70;3.75;;;;;;;13.69;100.00;100721.81;5081172;28;20059;-67
2022/07/03 04:10:23;;;;;;;6.63;3.08;;;;;;;13.58;100.00;100713.69;5077455;28;20382;-67
2022/07/03 04:12:49;;;;;;;5.55;3.15;;;;;;;13.70;100.00;100734.97;5074385;28;20072;-68
2022/07/03 04:15:14;;;;;;;4.97;3.50;;;;;;;13.68;100.00;100728.94;5074737;28;20024;-67
2022/07/03 04:17:39;;;;;;;6.05;3.42;;;;;;;13.65;100.00;100722.97;5082240;28;20024;-67
2022/07/03 04:20:05;;;;;;;7.25;3.28;;;;;;;13.76;100.00;100736.38;5077804;28;20525;-67
2022/07/03 04:22:31;;;;;;;6.45;3.22;;;;;;;13.74;100.00;100728.56;5073028;28;20397;-67
2022/07/03 04:24:56;;;;;;;5.30;2.97;;;;;;;13.82;100.00;100736.88;5090592;28;20020;-67
2022/07/03 04:27:21;;;;;;;6.95;3.10;;;;;;;13.76;100.00;100739.88;5065479;28;20078;-67
2022/07/03 04:29:47;;;;;;;4.05;2.47;;;;;;;13.73;100.00;100726.84;5060041;28;20112;-67
2022/07/03 04:32:12;;;;;;;7.47;2.90;;;;;;;13.75;100.00;100735.53;5074345;28;20024;-68
2022/07/03 04:34:37;;;;;;;7.32;3.28;;;;;;;13.84;100.00;100750.00;5074005;28;20066;-67
2022/07/03 04:37:03;;;;;;;4.95;2.47;;;;;;;13.83;100.00;100745.66;5086047;28;20421;-68
2022/07/03 04:39:28;;;;;;;7.03;2.67;;;;;;;13.88;100.00;100756.81;5074549;28;20154;-68
2022/07/03 04:41:54;;;;;;;4.55;2.53;;;;;;;13.85;100.00;100746.44;5068984;28;20021;-68
2022/07/03 04:44:19;;;;;;;5.68;2.95;;;;;;;13.79;100.00;100744.13;5085379;28;20067;-68
2022/07/03 04:46:45;;;;;;;5.55;2.80;;;;;;;13.85;100.00;100757.00;5054791;28;20246;-67
2022/07/03 04:49:10;;;;;;;5.70;2.83;;;;;;;13.95;100.00;100773.16;5077545;28;20115;-67
2022/07/03 04:51:35;;;;;;;3.67;2.80;;;;;;;14.02;100.00;100769.22;5077000;28;20550;-67
2022/07/03 04:54:01;;;;;;;4.65;2.80;;;;;;;14.07;100.00;100768.00;5086531;28;20020;-67
2022/07/03 04:56:26;;;;;;;5.93;3.08;;;;;;;14.14;100.00;100764.06;5078833;28;20031;-67
2022/07/03 04:58:51;;;;;;;5.72;3.10;;;;;;;14.28;100.00;100768.53;5081599;28;20118;-67
2022/07/03 05:01:17;;;;;;;7.00;2.85;;;;;;;14.30;100.00;100753.44;5078721;28;20036;-67
2022/07/03 05:03:42;;;;;;;6.72;3.00;;;;;;;14.51;100.00;100773.34;5079118;28;20466;-67
2022/07/03 05:06:07;;;;;;;5.60;3.45;;;;;;;14.60;100.00;100766.66;5074064;28;20036;-67
2022/07/03 05:08:33;;;;;;;4.97;3.00;;;;;;;14.69;100.00;100769.59;5087716;28;20024;-67
2022/07/03 05:11:00;;;;;;;6.47;3.17;;;;;;;14.79;100.00;100765.44;5055899;28;20021;-67
2022/07/03 05:13:25;;;;;;;5.90;3.38;;;;;;;14.95;100.00;100783.84;5081164;28;20028;-67
2022/07/03 05:15:50;;;;;;;6.78;3.40;;;;;;;14.95;100.00;100773.25;5075929;28;20051;-67
2022/07/03 05:18:16;;;;;;;8.02;3.33;;;;;;;14.92;100.00;100752.28;5073046;28;20501;-68
2022/07/03 05:20:41;;;;;;;6.82;3.20;;;;;;;15.23;100.00;100782.97;5056504;28;20229;-67
2022/07/03 05:23:06;;;;;;;12.40;3.83;;;;;;;15.29;100.00;100787.88;5061805;28;20020;-67
2022/07/03 05:25:32;;;;;;;12.85;3.40;;;;;;;15.39;100.00;100793.44;5080828;28;20042;-67
2022/07/03 05:27:58;;;;;;;7.72;3.60;;;;;;;15.39;100.00;100788.97;5078744;28;20024;-67
2022/07/03 05:30:24;;;;;;;6.30;3.50;;;;;;;15.47;100.00;100797.31;5064827;28;20036;-67
2022/07/03 05:32:50;;;;;;;5.25;3.17;;;;;;;15.49;100.00;100789.28;5055701;28;20115;-67
2022/07/03 05:35:15;;;;;;;6.88;3.38;;;;;;;15.43;100.00;100776.41;5085721;28;20115;-68
2022/07/03 05:37:40;;;;;;;11.38;3.28;;;;;;;15.53;100.00;100786.34;5083568;28;20070;-67
2022/07/03 05:40:07;;;;;;;5.32;2.75;;;;;;;15.55;100.00;100794.16;5068157;28;20477;-67
2022/07/03 05:42:33;;;;;;;5.60;2.97;;;;;;;15.54;100.00;100781.91;5070262;28;20059;-68
2022/07/03 05:44:58;;;;;;;5.28;2.65;;;;;;;15.47;100.00;100776.13;5090095;28;20489;-67
2022/07/03 05:47:24;;;;;;;6.15;2.95;;;;;;;15.50;100.00;100783.03;5082323;28;20507;-67
2022/07/03 05:49:49;;;;;;;6.60;2.90;;;;;;;15.40;100.00;100768.66;5085213;28;20024;-67
2022/07/03 05:52:16;;;;;;;4.57;2.72;;;;;;;15.32;100.00;100767.34;5073477;28;20025;-67
2022/07/03 05:54:41;;;;;;;7.50;3.47;;;;;;;15.27;100.00;100777.41;5067759;28;20024;-67
2022/07/03 05:57:06;;;;;;;6.78;3.17;;;;;;;15.22;100.00;100776.81;5065767;28;20107;-68
2022/07/03 05:59:32;;;;;;;7.40;3.15;;;;;;;15.26;100.00;100783.63;5045448;28;20040;-67
2022/07/03 06:01:57;;;;;;;9.10;3.38;;;;;;;15.27;100.00;100787.13;5061501;28;20028;-67
2022/07/03 06:04:23;;;;;;;3.78;2.50;;;;;;;15.38;100.00;100795.22;5069596;28;20447;-67
2022/07/03 06:06:48;;;;;;;5.53;2.65;;;;;;;15.44;100.00;100796.66;5070636;28;20048;-67
2022/07/03 06:09:13;;;;;;;5.95;2.65;;;;;;;15.43;100.00;100781.69;5082998;28;20024;-67
2022/07/03 06:11:39;;;;;;;4.82;2.50;;;;;;;15.49;100.00;100789.28;5069131;28;20027;-67
2022/07/03 06:14:04;;;;;;;9.20;2.60;;;;;;;15.55;100.00;100791.53;5071319;28;20425;-66
2022/07/03 06:16:29;;;;;;;5.43;2.45;;;;;;;15.71;100.00;100803.72;5063044;28;20028;-67
2022/07/03 06:18:55;;;;;;;3.53;2.08;;;;;;;15.69;100.00;100796.78;5080132;28;20394;-66
2022/07/03 06:21:20;;;;;;;6.57;2.40;;;;;;;15.74;100.00;100800.00;5053659;28;20024;-66
2022/07/03 06:23:46;;;;;;;4.75;2.13;;;;;;;15.87;100.00;100811.50;5084647;28;20449;-67
2022/07/03 06:26:11;;;;;;;4.35;2.25;;;;;;;15.85;100.00;100800.13;5076454;28;20115;-67
2022/07/03 06:28:37;;;;;;;3.40;1.63;;;;;;;15.96;100.00;100805.59;5074188;28;20108;-67
2022/07/03 06:31:02;;;;;;;6.47;2.70;;;;;;;16.01;100.00;100807.94;5078879;28;20025;-66
2022/07/03 06:33:27;;;;;;;6.20;2.03;;;;;;;16.06;100.00;100801.38;5085681;28;20024;-68
2022/07/03 06:35:53;;;;;;;3.75;1.83;;;;;;;16.13;100.00;100802.66;5073563;28;20111;-66
2022/07/03 06:38:18;;;;;;;3.88;1.92;;;;;;;16.26;100.00;100811.50;5076405;28;20058;-67
2022/07/03 06:40:43;;;;;;;6.22;1.58;;;;;;;16.19;100.00;100785.50;5069231;28;20024;-67
2022/07/03 06:43:09;;;;;;;3.53;1.33;;;;;;;16.31;100.00;100801.44;5065698;28;20031;-67
2022/07/03 06:45:34;;;;;;;4.10;2.20;;;;;;;16.42;100.00;100810.47;5045715;28;20025;-67
2022/07/03 06:48:00;;;;;;;3.20;1.42;;;;;;;16.48;100.00;100796.78;5077507;28;20398;-67
2022/07/03 06:50:25;;;;;;;4.00;1.92;;;;;;;16.57;100.00;100801.50;5067834;28;20035;-67
2022/07/03 06:52:50;;;;;;;3.20;1.38;;;;;;;16.59;100.00;100786.34;5060446;28;20420;-67
2022/07/03 06:55:16;;;;;;;3.92;1.70;;;;;;;16.71;100.00;100788.13;5080563;28;20517;-67
2022/07/03 06:57:41;;;;;;;3.63;1.40;;;;;;;16.62;100.00;100775.50;5078904;28;20032;-66
2022/07/03 07:00:07;;;;;;;3.10;1.20;;;;;;;16.83;100.00;100797.91;5068775;28;20021;-67
2022/07/03 07:02:32;;;;;;;3.72;1.33;;;;;;;16.85;100.00;100791.53;5068696;28;20386;-67
2022/07/03 07:04:58;;;;;;;11.20;1.73;;;;;;;16.67;100.00;100750.34;5085739;28;20122;-66
2022/07/03 07:07:23;;;;;;;3.30;1.27;;;;;;;16.97;100.00;100795.13;5063245;28;20528;-67
2022/07/03 07:09:49;;;;;;;6.55;1.30;;;;;;;17.10;100.00;100811.88;5043084;28;20029;-67
2022/07/03 07:12:15;;;;;;;1.92;0.82;;;;;;;17.12;100.00;100801.16;5064275;28;20035;-67
2022/07/03 07:14:40;;;;;;;3.65;1.23;;;;;;;17.21;100.00;100805.81;5064044;28;20522;-67
2022/07/03 07:17:05;;;;;;;5.78;1.20;;;;;;;17.29;100.00;100811.44;5059284;28;20108;-66
2022/07/03 07:19:31;;;;;;;4.72;1.10;;;;;;;17.28;100.00;100815.91;5075420;28;20109;-67
2022/07/03 07:21:56;;;;;;;3.83;1.10;;;;;;;17.33;100.00;100808.47;5055668;28;20087;-67
2022/07/03 07:24:22;;;;;;;2.55;1.27;;;;;;;17.36;100.00;100791.47;5094796;28;20406;-67
2022/07/03 07:26:47;;;;;;;3.83;1.50;;;;;;;17.53;100.00;100808.84;5067212;28;20111;-67
2022/07/03 07:29:12;;;;;;;2.38;1.02;;;;;;;17.46;100.00;100786.31;5093943;28;20522;-67
2022/07/03 07:31:38;;;;;;;3.13;1.20;;;;;;;17.63;100.00;100804.59;5080962;28;20467;-67
2022/07/03 07:34:06;;;;;;;1.92;0.70;;;;;;;17.67;100.00;100800.75;5090897;28;20048;-67
2022/07/03 07:36:32;;;;;;;3.22;1.23;;;;;;;17.68;100.00;100797.09;5066689;28;20031;-67
2022/07/03 07:38:57;;;;;;;2.00;0.95;;;;;;;17.77;100.00;100807.94;5081213;28;20502;-67
2022/07/03 07:41:23;;;;;;;2.95;1.15;;;;;;;17.86;100.00;100812.56;5074586;28;20036;-67
2022/07/03 07:43:48;;;;;;;1.95;0.70;;;;;;;17.92;100.00;100811.25;5088757;28;20074;-67
2022/07/03 07:46:14;;;;;;;2.80;1.17;;;;;;;18.02;100.00;100822.91;5084214;28;20020;-67
2022/07/03 07:48:40;;;;;;;1.98;0.70;;;;;;;18.07;100.00;100826.09;5083212;28;20032;-67
2022/07/03 07:51:05;;;;;;;3.83;1.25;;;;;;;17.84;100.00;100765.78;5076922;28;20048;-66
2022/07/03 07:53:31;;;;;;;7.95;1.02;;;;;;;18.12;100.00;100807.09;5076108;28;20039;-67
2022/07/03 07:55:56;;;;;;;2.95;1.23;;;;;;;18.15;100.00;100802.41;5087671;28;20020;-67
2022/07/03 07:58:22;;;;;;;2.22;0.88;;;;;;;18.19;100.00;100806.53;5091925;28;20036;-67
2022/07/03 08:06:15;;;;;;;2.38;1.10;;;;;;;18.16;100.00;100788.16;5061146;28;20043;-67
2022/07/03 08:08:41;;;;;;;3.75;1.10;;;;;;;18.15;100.00;100775.81;5087829;28;20029;-67
2022/07/03 08:11:06;;;;;;;2.70;1.05;;;;;;;18.44;100.00;100812.66;5066741;28;20120;-67
2022/07/03 08:13:31;;;;;;;1.95;0.93;;;;;;;18.43;100.00;100805.63;5059838;28;20040;-66
2022/07/03 08:15:57;;;;;;;3.20;1.17;;;;;;;18.48;100.00;100816.81;5076528;28;20059;-67
2022/07/03 08:18:22;;;;;;;2.92;0.90;;;;;;;18.58;100.00;100812.50;5061437;28;20032;-67
2022/07/03 08:20:48;;;;;;;2.65;0.90;;;;;;;18.64;100.00;100812.03;5077115;28;20029;-67
2022/07/03 08:23:14;;;;;;;2.42;0.90;;;;;;;18.70;100.00;100811.53;5091480;28;20312;-66
2022/07/03 08:25:39;;;;;;;3.97;1.08;;;;;;;18.75;100.00;100810.25;5082332;28;20467;-67
2022/07/03 08:28:05;;;;;;;2.22;0.98;;;;;;;18.80;100.00;100807.22;5059590;28;20092;-67
2022/07/03 08:30:30;;;;;;;1.70;0.70;;;;;;;18.87;100.00;100806.63;5075665;28;20478;-67
2022/07/03 08:32:57;;;;;;;1.30;0.47;;;;;;;18.95;100.00;100811.34;5057471;28;20031;-67
2022/07/03 08:35:22;;;;;;;1.50;0.57;;;;;;;19.04;100.00;100815.94;5082236;28;20029;-67
2022/07/03 08:37:48;;;;;;;2.33;0.88;;;;;;;19.10;100.00;100804.81;5078986;28;20026;-68
2022/07/03 08:40:15;;;;;;;2.15;0.68;;;;;;;19.21;100.00;100812.78;5086019;28;20031;-67
2022/07/03 08:42:46;;;;;;;2.35;1.00;;;;;;;19.24;100.00;100804.56;5055590;28;20499;-67
2022/07/03 08:45:16;;;;;;;2.38;0.80;;;;;;;19.34;100.00;100815.31;5087812;28;20023;-67
2022/07/03 08:47:45;;;;;;;2.80;1.10;;;;;;;19.34;100.00;100786.88;5063967;28;20759;-67
2022/07/03 08:50:20;;;;;;;3.92;1.05;;;;;;;19.47;100.00;100807.25;5074580;28;20090;-66
2022/07/03 08:52:46;;;;;;;1.75;0.77;;;;;;;19.32;100.00;100812.81;5067178;28;20482;-66
2022/07/03 08:55:16;;;;;;;2.35;0.68;;;;;;;19.24;100.00;100798.38;5063118;28;20075;-66
2022/07/03 08:57:42;;;;;;;7.22;0.80;;;;;;;19.39;100.00;100808.69;5061485;28;20043;-67
2022/07/03 09:00:11;;;;;;;2.72;1.00;;;;;;;19.48;100.00;100790.25;5093329;28;20466;-67
2022/07/03 09:02:39;;;;;;;1.70;0.95;;;;;;;19.69;100.00;100809.84;5038899;28;20033;-66
2022/07/03 09:05:06;;;;;;;1.48;0.70;;;;;;;19.67;100.00;100790.47;5027322;28;20796;-67
2022/07/03 09:07:35;;;;;;;5.60;0.98;;;;;;;19.78;100.00;100809.09;5070929;28;20066;-67
2022/07/03 09:10:02;;;;;;;1.50;0.73;;;;;;;19.83;100.00;100804.25;5063926;28;20017;-67
2022/07/03 09:12:30;;;;;;;2.10;0.60;;;;;;;19.64;100.00;100772.88;5069957;28;20030;-66
2022/07/03 09:14:55;;;;;;;5.75;0.88;;;;;;;19.75;100.00;100772.88;5077345;28;20078;-67
2022/07/03 09:17:21;;;;;;;3.00;0.93;;;;;;;20.05;100.00;100798.81;5043176;28;20059;-66
2022/07/03 09:19:48;;;;;;;4.03;0.90;;;;;;;20.08;100.00;100797.72;5056451;28;20420;-66
2022/07/03 09:22:24;;;;;;;3.70;0.98;;;;;;;20.12;100.00;100797.34;5082164;28;20074;-67
2022/07/03 09:24:54;;;;;;;4.63;1.10;;;;;;;20.26;100.00;100806.84;5063632;28;20032;-67
2022/07/03 09:27:21;;;;;;;1.52;0.70;;;;;;;20.32;100.00;100809.03;5072168;28;20028;-66
2022/07/03 09:30:09;;;;;;;2.28;1.02;;;;;;;20.45;100.00;100811.53;5084159;28;20032;-67
2022/07/03 09:32:38;;;;;;;3.38;1.08;;;;;;;20.45;100.00;100814.22;5065826;28;20032;-66
2022/07/03 09:35:11;;;;;;;2.00;0.70;;;;;;;20.53;100.00;100809.06;5087702;28;20020;-68
2022/07/03 09:37:36;;;;;;;1.95;0.80;;;;;;;20.75;100.00;100808.94;5072257;28;20200;-67
2022/07/03 09:40:03;;;;;;;2.28;0.80;;;;;;;20.84;100.00;100800.09;5076261;28;20479;-67
2022/07/03 09:42:29;;;;;;;2.60;0.98;;;;;;;20.71;100.00;100773.63;5074744;28;20491;-68
2022/07/03 09:44:54;;;;;;;3.25;1.02;;;;;;;20.94;100.00;100818.88;5071457;28;20059;-67
2022/07/03 09:47:22;;;;;;;2.95;0.93;;;;;;;21.00;100.00;100811.16;5092339;28;20433;-67
2022/07/03 09:49:56;;;;;;;10.93;1.00;;;;;;;21.04;100.00;100820.59;5072956;28;20885;-67
2022/07/03 09:52:33;;;;;;;2.80;0.98;;;;;;;21.07;100.00;100816.81;5067461;28;20571;-67
2022/07/03 09:55:09;;;;;;;2.00;1.00;;;;;;;21.11;100.00;100807.59;5080671;28;20544;-67
2022/07/03 09:57:36;;;;;;;2.30;1.10;;;;;;;21.20;100.00;100810.28;5053543;28;20112;-67
2022/07/03 10:00:08;;;;;;;1.77;0.70;;;;;;;21.38;100.00;100821.19;5041181;28;20024;-67
2022/07/03 10:02:34;;;;;;;1.40;0.70;;;;;;;21.38;100.00;100808.69;5078431;28;20077;-67
2022/07/03 10:05:12;;;;;;;2.38;1.02;;;;;;;21.42;100.00;100790.53;5055986;28;20119;-67
2022/07/03 10:07:59;;;;;;;3.63;0.95;;;;;;;21.63;100.00;100830.56;5067216;28;20039;-68
2022/07/03 10:10:30;;;;;;;3.25;0.80;;;;;;;21.56;100.00;100814.22;5057394;28;20032;-67
2022/07/03 10:12:56;;;;;;;4.07;0.93;;;;;;;21.61;100.00;100811.13;5067522;28;20029;-67
2022/07/03 10:15:22;;;;;;;2.97;0.93;;;;;;;21.69;100.00;100814.81;5053561;28;20017;-68
2022/07/03 10:17:50;;;;;;;3.72;1.10;;;;;;;21.71;100.00;100822.69;5080263;28;20062;-67
2022/07/03 10:20:40;;;;;;;2.03;0.90;;;;;;;21.72;100.00;100814.53;5066132;28;20053;-67
2022/07/03 10:23:06;;;;;;;2.78;0.95;;;;;;;21.66;100.00;100820.44;5084966;28;20060;-67
2022/07/03 10:25:31;;;;;;;2.65;1.17;;;;;;;21.64;100.00;100817.03;5085828;28;20035;-67
2022/07/03 10:27:57;;;;;;;3.53;0.60;;;;;;;21.82;100.00;100819.91;5064827;28;20035;-67
2022/07/03 10:30:24;;;;;;;3.47;1.00;;;;;;;22.03;100.00;100820.66;5089370;28;20062;-67
2022/07/03 10:32:52;;;;;;;3.75;1.10;;;;;;;22.11;100.00;100836.84;5076161;28;20127;-67
2022/07/03 10:35:23;;;;;;;5.45;1.08;;;;;;;22.02;100.00;100816.28;5084358;28;20034;-67
2022/07/03 10:38:30;;;;;;;2.22;0.75;;;;;;;22.00;97.49;100831.66;5077710;28;20069;-66
2022/07/03 10:46:40;;;;;;;3.08;0.85;;;;;;;22.19;100.00;100806.72;5083229;28;20054;-67
2022/07/03 10:49:10;;;;;;;3.50;0.85;;;;;;;22.41;100.00;100833.19;5084490;28;20028;-67
2022/07/03 10:51:44;;;;;;;4.88;1.02;;;;;;;22.22;97.63;100835.88;5077990;28;20591;-65
2022/07/03 10:54:18;;;;;;;3.60;1.00;;;;;;;22.15;100.00;100830.25;5083551;28;20021;-66
2022/07/03 10:57:00;;;;;;;3.83;1.00;;;;;;;22.48;99.26;100833.47;5074721;28;20449;-67
2022/07/03 10:59:34;;;;;;;2.65;1.20;;;;;;;22.62;100.00;100827.66;5066452;28;20028;-68
2022/07/03 11:02:36;;;;;;;2.05;1.00;;;;;;;22.61;99.63;100823.31;5075761;28;20063;-67
2022/07/03 11:05:01;;;;;;;1.88;0.85;;;;;;;22.24;99.76;100829.38;5074562;28;20023;-66
2022/07/03 11:07:42;;;;;;;5.30;1.15;;;;;;;21.99;99.41;100837.13;5071198;28;20468;-66
2022/07/03 11:10:14;;;;;;;3.20;1.10;;;;;;;21.99;100.00;100832.63;5068326;28;20025;-67
2022/07/03 11:12:58;;;;;;;4.63;0.80;;;;;;;22.08;100.00;100831.78;5070357;28;20021;-67
2022/07/03 11:15:41;;;;;;;2.05;1.00;;;;;;;22.25;100.00;100820.38;5071275;28;20109;-67
2022/07/03 11:18:27;;;;;;;2.38;1.05;;;;;;;22.35;99.71;100829.25;5077255;28;20054;-66
2022/07/03 11:20:52;;;;;;;4.78;0.80;;;;;;;22.20;100.00;100830.69;5087668;28;20036;-68
2022/07/03 11:23:30;;;;;;;2.70;1.08;;;;;;;22.23;100.00;100800.94;5091367;28;20046;-67
2022/07/03 11:26:09;;;;;;;2.17;1.10;;;;;;;22.60;100.00;100797.50;5070287;28;20040;-67
2022/07/03 11:28:34;;;;;;;13.18;0.93;;;;;;;23.03;97.78;100818.44;5079613;28;20622;-67
2022/07/03 11:34:00;;;;;;;4.38;1.20;;;;;;;23.46;93.78;100820.53;5060347;28;20029;-67
2022/07/03 11:36:30;;;;;;;2.25;1.00;;;;;;;23.78;95.56;100810.19;5030887;28;20908;-68
2022/07/03 11:38:57;;;;;;;2.53;0.90;;;;;;;24.21;93.38;100807.63;5047368;28;20040;-67
2022/07/03 11:41:23;;;;;;;2.67;0.60;;;;;;;24.18;89.82;100818.66;5058330;28;20384;-66